Crescent, Oregon
Current Conditions -  °F | °C
As of 10:55 AM on Thursday 23 Oct 2014 (Local Time) from KBDN Reporting Station
Light Rain Light Rain  
Wind Chill: 50°   Ceiling: 4300
Heat Index: 50°   Visibility: 2.5mi
Dew Point: 46°   Wind: 16mph
Humidity: 87%   Direction: 210°SSW
Pressure: 29.91"   Gusts: 21mph
Location:  43.46°N, 121.7°W
Report Text: KBDN 231755Z AUTO 21014G18KT 2 1/2SM -RA FEW020 SCT030 BKN043 10/08 A2991 RMK AO2 P0007
Loading
Personal Weather Stations






























Interactive Weather Map
Tropical Storm Tracking
New forecast layout! Learn more

10-Day Weather Forecast

Advertisements
Track Severe Weather on mobile